Time;durP1;ratioP1;P1;durP2;ratioP2;P2;SDS_P1;SDS_P2;PMS_P1;PMS_P2;Temp;Humidity;BMP_temperature;BMP_pressure;BME280_temperature;BME280_humidity;BME280_pressure;Samples;Min_cycle;Max_cycle;Signal;HPM_P1;HPM_P2
2023/01/29 00:01:59;;;;;;;0.73;0.63;;;;;;;;;;5068759;28;20075;-68
2023/01/29 00:04:28;;;;;;;1.65;1.55;;;;;;;;;;5072664;28;20044;-67
2023/01/29 00:06:58;;;;;;;2.22;1.65;;;;;;;;;;5071599;28;20052;-67
2023/01/29 00:09:26;;;;;;;2.17;1.95;;;;;;;;;;5073812;28;20048;-68
2023/01/29 00:11:54;;;;;;;4.07;2.88;;;;;;;;;;5075209;28;20043;-67
2023/01/29 00:14:23;;;;;;;2.17;0.95;;;;;;;;;;5074466;28;20127;-67
2023/01/29 00:16:51;;;;;;;2.10;1.90;;;;;;;;;;5068576;28;20044;-67
2023/01/29 00:19:19;;;;;;;1.50;1.40;;;;;;;;;;5068650;28;20131;-67
2023/01/29 00:21:47;;;;;;;0.88;0.88;;;;;;;;;;5066569;28;20167;-68
2023/01/29 00:24:17;;;;;;;3.30;1.73;;;;;;;;;;5062364;28;20048;-67
2023/01/29 00:26:48;;;;;;;1.42;1.38;;;;;;;;;;5072577;28;20044;-67
2023/01/29 00:29:17;;;;;;;1.23;1.13;;;;;;;;;;5074967;28;20481;-68
2023/01/29 00:31:46;;;;;;;2.28;1.98;;;;;;;;;;5068885;28;20105;-67
2023/01/29 00:34:14;;;;;;;2.28;0.98;;;;;;;;;;5071070;28;20040;-67
2023/01/29 00:36:44;;;;;;;1.10;1.02;;;;;;;;;;5065006;28;20139;-66
2023/01/29 00:39:12;;;;;;;1.10;1.02;;;;;;;;;;5070285;28;20049;-66
2023/01/29 00:47:33;;;;;;;1.80;1.05;;;;;;;;;;5062512;28;20068;-66
2023/01/29 00:50:01;;;;;;;0.95;0.95;;;;;;;;;;5066222;28;20131;-67
2023/01/29 00:52:29;;;;;;;1.52;0.93;;;;;;;;;;5069904;28;20055;-67
2023/01/29 00:54:58;;;;;;;3.58;1.25;;;;;;;;;;5064737;28;20049;-67
2023/01/29 00:57:29;;;;;;;2.35;1.58;;;;;;;;;;5075517;28;20105;-67
2023/01/29 00:59:58;;;;;;;1.92;0.85;;;;;;;;;;5070412;28;20492;-68
2023/01/29 01:05:16;;;;;;;1.08;0.95;;;;;;;;;;5067967;28;20052;-67
2023/01/29 01:07:46;;;;;;;0.85;0.85;;;;;;;;;;5072166;28;20048;-66
2023/01/29 01:10:20;;;;;;;0.77;0.70;;;;;;;;;;5065118;28;20052;-67
2023/01/29 01:12:49;;;;;;;;;;;;;;;;;;5070503;28;20051;-67
2023/01/29 01:15:19;;;;;;;0.70;0.70;;;;;;;;;;5068654;28;19974;-67
2023/01/29 01:17:48;;;;;;;2.42;1.45;;;;;;;;;;5069163;28;20049;-68
2023/01/29 01:20:17;;;;;;;1.58;1.25;;;;;;;;;;5068595;28;20052;-67
2023/01/29 01:22:45;;;;;;;1.17;0.77;;;;;;;;;;5070973;28;20045;-66
2023/01/29 01:25:15;;;;;;;5.28;1.38;;;;;;;;;;5077407;28;20049;-66
2023/01/29 01:27:43;;;;;;;2.38;1.70;;;;;;;;;;5077704;28;20048;-67
2023/01/29 01:30:12;;;;;;;3.90;2.10;;;;;;;;;;5069736;28;20061;-66
2023/01/29 01:32:43;;;;;;;1.30;0.98;;;;;;;;;;5066710;28;20059;-67
2023/01/29 01:35:13;;;;;;;0.70;0.70;;;;;;;;;;5070988;28;20140;-67
2023/01/29 01:37:41;;;;;;;7.60;1.90;;;;;;;;;;5075926;28;20076;-66
2023/01/29 01:40:16;;;;;;;3.05;1.58;;;;;;;;;;5068450;28;20119;-67
2023/01/29 01:42:48;;;;;;;2.85;0.73;;;;;;;;;;5061008;28;20076;-66
2023/01/29 01:45:19;;;;;;;3.70;1.55;;;;;;;;;;5075505;28;20040;-66
2023/01/29 01:47:51;;;;;;;1.35;0.82;;;;;;;;;;5068810;28;20044;-67
2023/01/29 01:50:21;;;;;;;1.27;1.17;;;;;;;;;;5072434;28;20068;-67
2023/01/29 01:52:52;;;;;;;0.98;0.68;;;;;;;;;;5073323;28;20060;-67
2023/01/29 01:55:23;;;;;;;1.55;0.95;;;;;;;;;;5070476;28;20512;-69
2023/01/29 01:57:56;;;;;;;0.68;0.68;;;;;;;;;;5077799;28;20083;-67
2023/01/29 02:00:26;;;;;;;4.47;0.93;;;;;;;;;;5073260;28;20049;-66
2023/01/29 02:11:17;;;;;;;1.52;1.42;;;;;;;;;;5073508;28;20047;-66
2023/01/29 02:13:45;;;;;;;2.00;0.75;;;;;;;;;;5073423;28;20055;-66
2023/01/29 02:16:14;;;;;;;2.00;0.45;;;;;;;;;;5071668;28;20048;-69
2023/01/29 02:18:43;;;;;;;1.58;1.05;;;;;;;;;;5072610;28;20048;-66
2023/01/29 02:21:37;;;;;;;0.70;0.60;;;;;;;;;;5073731;28;20052;-68
2023/01/29 02:24:12;;;;;;;0.82;0.60;;;;;;;;;;5062978;28;20477;-66
2023/01/29 02:26:51;;;;;;;0.40;0.40;;;;;;;;;;5070888;28;20054;-67
2023/01/29 02:29:25;;;;;;;0.93;0.90;;;;;;;;;;5082003;28;20079;-66
2023/01/29 02:31:59;;;;;;;1.55;0.73;;;;;;;;;;5070805;28;20045;-66
2023/01/29 02:37:22;;;;;;;2.20;0.50;;;;;;;;;;5073313;28;20045;-66
2023/01/29 02:39:54;;;;;;;0.55;0.52;;;;;;;;;;5072140;28;20148;-67
2023/01/29 02:42:26;;;;;;;1.27;1.05;;;;;;;;;;5072115;28;20052;-68
2023/01/29 02:44:57;;;;;;;0.73;0.73;;;;;;;;;;5075128;28;20049;-67
2023/01/29 02:47:31;;;;;;;0.75;0.75;;;;;;;;;;5070355;28;20037;-67
2023/01/29 02:50:02;;;;;;;1.50;1.20;;;;;;;;;;5078395;28;20049;-67
2023/01/29 02:52:35;;;;;;;1.67;1.58;;;;;;;;;;5070728;28;20080;-67
2023/01/29 02:55:07;;;;;;;1.27;0.60;;;;;;;;;;5075128;28;20044;-67
2023/01/29 02:57:37;;;;;;;0.40;0.40;;;;;;;;;;5073939;28;20489;-67
2023/01/29 03:00:10;;;;;;;3.40;0.95;;;;;;;;;;5072961;28;20051;-68
2023/01/29 03:02:42;;;;;;;0.82;0.45;;;;;;;;;;5064076;28;20056;-68
2023/01/29 03:05:14;;;;;;;0.60;0.43;;;;;;;;;;5075896;28;20162;-68
2023/01/29 03:07:47;;;;;;;0.63;0.63;;;;;;;;;;5080655;28;20051;-68
2023/01/29 03:10:18;;;;;;;0.90;0.60;;;;;;;;;;5074886;28;20048;-68
2023/01/29 03:12:48;;;;;;;1.05;1.00;;;;;;;;;;5073227;28;20054;-68
2023/01/29 03:15:23;;;;;;;1.40;0.80;;;;;;;;;;5070472;28;20127;-68
2023/01/29 03:17:54;;;;;;;1.60;0.82;;;;;;;;;;5071986;28;20047;-68
2023/01/29 03:20:25;;;;;;;3.40;1.35;;;;;;;;;;5069004;28;20053;-66
2023/01/29 03:22:56;;;;;;;0.60;0.60;;;;;;;;;;5072072;28;20515;-68
2023/01/29 03:33:50;;;;;;;1.45;1.15;;;;;;;;;;5067315;28;20048;-67
2023/01/29 03:36:20;;;;;;;0.50;0.47;;;;;;;;;;5071567;28;20052;-67
2023/01/29 03:38:48;;;;;;;0.98;0.85;;;;;;;;;;5067110;28;20508;-69
2023/01/29 03:41:21;;;;;;;2.50;1.08;;;;;;;;;;5068163;28;20048;-67
2023/01/29 03:43:52;;;;;;;1.58;1.38;;;;;;;;;;5078601;28;20048;-67
2023/01/29 03:46:27;;;;;;;1.48;1.23;;;;;;;;;;5071741;28;20057;-68
2023/01/29 03:48:59;;;;;;;0.85;0.82;;;;;;;;;;5066928;28;20052;-68
2023/01/29 03:51:29;;;;;;;0.75;0.75;;;;;;;;;;5070135;28;20060;-68
2023/01/29 03:54:04;;;;;;;1.35;0.43;;;;;;;;;;5074637;28;20048;-68
2023/01/29 03:56:37;;;;;;;0.60;0.60;;;;;;;;;;5070180;28;20496;-68
2023/01/29 03:59:11;;;;;;;3.75;1.92;;;;;;;;;;5071908;28;20414;-70
2023/01/29 04:01:42;;;;;;;1.17;0.82;;;;;;;;;;5071242;28;20131;-67
2023/01/29 04:04:15;;;;;;;1.00;0.52;;;;;;;;;;5077100;28;20470;-69
2023/01/29 04:06:45;;;;;;;1.27;1.17;;;;;;;;;;5069996;28;20045;-67
2023/01/29 04:09:15;;;;;;;0.63;0.63;;;;;;;;;;5069089;28;20049;-67
2023/01/29 04:11:46;;;;;;;0.50;0.50;;;;;;;;;;5069191;28;20044;-67
2023/01/29 04:14:14;;;;;;;0.52;0.52;;;;;;;;;;5077382;28;20045;-67
2023/01/29 04:16:46;;;;;;;0.60;0.60;;;;;;;;;;5070901;28;20052;-67
2023/01/29 04:19:15;;;;;;;0.73;0.73;;;;;;;;;;5069850;28;20044;-67
2023/01/29 04:21:43;;;;;;;1.80;1.13;;;;;;;;;;5071583;28;20062;-67
2023/01/29 04:24:13;;;;;;;1.58;0.93;;;;;;;;;;5076837;28;20044;-68
2023/01/29 04:26:50;;;;;;;1.15;1.05;;;;;;;;;;5071271;28;20060;-68
2023/01/29 04:29:25;;;;;;;0.65;0.47;;;;;;;;;;5075497;28;20103;-69
2023/01/29 04:32:03;;;;;;;1.95;0.90;;;;;;;;;;5073395;28;20048;-67
2023/01/29 04:34:37;;;;;;;1.50;1.40;;;;;;;;;;5069074;28;20041;-69
2023/01/29 04:37:11;;;;;;;2.50;1.15;;;;;;;;;;5061336;28;20044;-68
2023/01/29 04:39:44;;;;;;;0.88;0.63;;;;;;;;;;5034575;28;20057;-67
2023/01/29 04:42:14;;;;;;;1.10;0.88;;;;;;;;;;5066239;28;20049;-67
2023/01/29 04:44:44;;;;;;;0.93;0.93;;;;;;;;;;5067774;28;20059;-67
2023/01/29 04:47:19;;;;;;;2.08;1.65;;;;;;;;;;5063363;28;20515;-68
2023/01/29 04:49:50;;;;;;;3.20;1.25;;;;;;;;;;5066211;28;20044;-67
2023/01/29 04:52:24;;;;;;;2.28;0.70;;;;;;;;;;5069860;28;20837;-67
2023/01/29 04:54:58;;;;;;;2.03;1.30;;;;;;;;;;5069983;28;20485;-67
2023/01/29 04:57:28;;;;;;;1.08;0.98;;;;;;;;;;5072459;28;20040;-67
2023/01/29 04:59:59;;;;;;;0.73;0.73;;;;;;;;;;5071028;28;20485;-67
2023/01/29 05:02:28;;;;;;;1.75;1.65;;;;;;;;;;5071023;28;20082;-67
2023/01/29 05:04:58;;;;;;;1.95;1.48;;;;;;;;;;5072596;28;20048;-68
2023/01/29 05:07:28;;;;;;;0.95;0.95;;;;;;;;;;5066573;28;20037;-68
2023/01/29 05:10:04;;;;;;;0.68;0.47;;;;;;;;;;5072347;28;20056;-69
2023/01/29 05:12:33;;;;;;;1.15;0.77;;;;;;;;;;5065715;28;20056;-72
2023/01/29 05:15:02;;;;;;;1.33;1.10;;;;;;;;;;5069824;28;20147;-69
2023/01/29 05:17:32;;;;;;;1.27;1.00;;;;;;;;;;5073975;28;20050;-67
2023/01/29 05:20:07;;;;;;;1.52;0.85;;;;;;;;;;5073156;28;20079;-67
2023/01/29 05:22:37;;;;;;;0.22;0.22;;;;;;;;;;5061271;28;20060;-68
2023/01/29 05:25:11;;;;;;;1.77;1.67;;;;;;;;;;5076300;28;20047;-68
2023/01/29 05:30:25;;;;;;;1.05;1.02;;;;;;;;;;5079961;28;20041;-67
2023/01/29 05:32:54;;;;;;;0.52;0.52;;;;;;;;;;5071467;28;20045;-67
2023/01/29 05:35:23;;;;;;;1.08;1.08;;;;;;;;;;5075094;28;20401;-67
2023/01/29 05:37:51;;;;;;;1.23;1.13;;;;;;;;;;5071551;28;20041;-67
2023/01/29 05:40:19;;;;;;;1.60;1.52;;;;;;;;;;5085354;28;20048;-68
2023/01/29 05:42:48;;;;;;;0.88;0.85;;;;;;;;;;5069747;28;20048;-68
2023/01/29 05:45:16;;;;;;;3.03;1.73;;;;;;;;;;5083167;28;20041;-68
2023/01/29 05:47:44;;;;;;;0.52;0.52;;;;;;;;;;5067120;28;20511;-67
2023/01/29 05:50:14;;;;;;;3.30;1.77;;;;;;;;;;5075545;28;20040;-68
2023/01/29 05:52:43;;;;;;;3.25;1.08;;;;;;;;;;5072306;28;20445;-68
2023/01/29 05:55:11;;;;;;;1.83;0.85;;;;;;;;;;5074264;28;20052;-68
2023/01/29 05:57:40;;;;;;;3.95;0.65;;;;;;;;;;5076380;28;20481;-68
2023/01/29 06:00:11;;;;;;;1.77;1.40;;;;;;;;;;5068840;28;20311;-67
2023/01/29 06:02:40;;;;;;;2.28;2.08;;;;;;;;;;5058980;28;20068;-67
2023/01/29 06:05:08;;;;;;;0.32;0.32;;;;;;;;;;5075502;28;20191;-68
2023/01/29 06:07:38;;;;;;;3.75;2.05;;;;;;;;;;5078586;28;20075;-68
2023/01/29 06:10:10;;;;;;;2.70;1.30;;;;;;;;;;5071346;28;20118;-67
2023/01/29 06:12:38;;;;;;;2.33;1.55;;;;;;;;;;5062769;28;20052;-68
2023/01/29 06:15:07;;;;;;;0.82;0.82;;;;;;;;;;5077898;28;20502;-68
2023/01/29 06:17:35;;;;;;;0.93;0.90;;;;;;;;;;5071959;28;20059;-67
2023/01/29 06:20:04;;;;;;;1.05;1.05;;;;;;;;;;5070402;28;20507;-68
2023/01/29 06:22:33;;;;;;;1.42;1.20;;;;;;;;;;5069887;28;20075;-68
2023/01/29 06:25:03;;;;;;;1.30;0.95;;;;;;;;;;5075818;28;20523;-68
2023/01/29 06:27:31;;;;;;;1.45;0.55;;;;;;;;;;5070509;28;20051;-67
2023/01/29 06:29:59;;;;;;;1.27;0.85;;;;;;;;;;5073224;28;20052;-68
2023/01/29 06:32:28;;;;;;;2.03;1.25;;;;;;;;;;5073916;28;20552;-70
2023/01/29 06:34:56;;;;;;;2.05;0.80;;;;;;;;;;5072162;28;20249;-68
2023/01/29 06:37:24;;;;;;;0.85;0.82;;;;;;;;;;5070955;28;20044;-68
2023/01/29 06:39:53;;;;;;;2.67;1.52;;;;;;;;;;5071588;28;20398;-68
2023/01/29 06:42:26;;;;;;;2.00;1.42;;;;;;;;;;5074895;28;20377;-68
2023/01/29 06:44:55;;;;;;;0.47;0.47;;;;;;;;;;5071804;28;20131;-68
2023/01/29 06:47:23;;;;;;;0.90;0.90;;;;;;;;;;5073220;28;20059;-67
2023/01/29 06:49:52;;;;;;;2.10;1.27;;;;;;;;;;5068585;28;20048;-67
2023/01/29 06:52:20;;;;;;;2.50;1.35;;;;;;;;;;5071000;28;20384;-68
2023/01/29 06:54:48;;;;;;;2.15;1.63;;;;;;;;;;5073067;28;20054;-69
2023/01/29 06:57:16;;;;;;;4.30;0.80;;;;;;;;;;5073207;28;20423;-67
2023/01/29 06:59:46;;;;;;;0.75;0.75;;;;;;;;;;5073236;28;20047;-67
2023/01/29 07:02:15;;;;;;;2.15;0.95;;;;;;;;;;5063783;28;20119;-71
2023/01/29 07:04:43;;;;;;;1.08;0.98;;;;;;;;;;5069747;28;20052;-71
2023/01/29 07:07:12;;;;;;;1.17;0.88;;;;;;;;;;5070973;28;20492;-68
2023/01/29 07:09:41;;;;;;;2.50;1.00;;;;;;;;;;5061653;28;20044;-68
2023/01/29 07:12:09;;;;;;;1.55;1.35;;;;;;;;;;5069113;28;20048;-68
2023/01/29 07:14:37;;;;;;;2.10;0.80;;;;;;;;;;5075638;28;20055;-68
2023/01/29 07:17:07;;;;;;;1.65;1.38;;;;;;;;;;5072473;28;20052;-69
2023/01/29 07:19:35;;;;;;;0.88;0.85;;;;;;;;;;5079618;28;20102;-69
2023/01/29 07:22:04;;;;;;;1.02;0.70;;;;;;;;;;5072282;28;20058;-68
2023/01/29 07:24:33;;;;;;;0.95;0.68;;;;;;;;;;5068267;28;20052;-70
2023/01/29 07:27:01;;;;;;;0.75;0.75;;;;;;;;;;5071780;28;20044;-68
2023/01/29 07:29:29;;;;;;;1.58;1.48;;;;;;;;;;5071497;28;20501;-66
2023/01/29 07:31:58;;;;;;;1.83;1.05;;;;;;;;;;5062701;28;20052;-69
2023/01/29 07:34:28;;;;;;;1.45;1.35;;;;;;;;;;5069994;28;20053;-68
2023/01/29 07:36:57;;;;;;;1.42;1.33;;;;;;;;;;5071976;28;20055;-68
2023/01/29 07:39:25;;;;;;;0.50;0.50;;;;;;;;;;5062560;28;20049;-66
2023/01/29 07:41:54;;;;;;;0.57;0.57;;;;;;;;;;5070073;28;20056;-69
2023/01/29 07:44:22;;;;;;;1.80;0.88;;;;;;;;;;5075032;28;20052;-66
2023/01/29 07:46:50;;;;;;;1.38;1.33;;;;;;;;;;5064816;28;20493;-68
2023/01/29 07:49:18;;;;;;;1.38;1.27;;;;;;;;;;5081373;28;20063;-68
2023/01/29 07:51:48;;;;;;;1.05;1.05;;;;;;;;;;5069989;28;20052;-68
2023/01/29 07:54:17;;;;;;;1.80;1.65;;;;;;;;;;5055286;28;20427;-68
2023/01/29 07:56:52;;;;;;;1.33;1.23;;;;;;;;;;5052696;28;20071;-68
2023/01/29 07:59:20;;;;;;;3.10;0.85;;;;;;;;;;5052970;28;20519;-68
2023/01/29 08:01:48;;;;;;;0.65;0.65;;;;;;;;;;5065698;28;20143;-68
2023/01/29 08:04:17;;;;;;;1.27;1.02;;;;;;;;;;5070274;28;20055;-70
2023/01/29 08:06:45;;;;;;;5.10;1.83;;;;;;;;;;5073917;28;20048;-67
2023/01/29 08:09:15;;;;;;;4.22;1.58;;;;;;;;;;5082040;28;20491;-68
2023/01/29 08:11:43;;;;;;;1.35;0.82;;;;;;;;;;5072513;28;20052;-68
2023/01/29 08:14:11;;;;;;;0.40;0.40;;;;;;;;;;5081654;28;20362;-68
2023/01/29 08:16:39;;;;;;;1.55;1.45;;;;;;;;;;5072201;28;20408;-68
2023/01/29 08:19:08;;;;;;;1.13;1.13;;;;;;;;;;5071314;28;20567;-67
2023/01/29 08:21:36;;;;;;;0.77;0.65;;;;;;;;;;5070497;28;20051;-68
2023/01/29 08:24:04;;;;;;;0.73;0.52;;;;;;;;;;5071324;28;20421;-69
2023/01/29 08:26:34;;;;;;;0.90;0.68;;;;;;;;;;5074835;28;20053;-69
2023/01/29 08:29:03;;;;;;;1.65;1.50;;;;;;;;;;5069186;28;20090;-68
2023/01/29 08:31:32;;;;;;;1.33;0.85;;;;;;;;;;5072723;28;20052;-68
2023/01/29 08:34:01;;;;;;;0.73;0.73;;;;;;;;;;5072242;28;20055;-68
2023/01/29 08:36:29;;;;;;;2.83;1.23;;;;;;;;;;5069469;28;20479;-68
2023/01/29 08:38:57;;;;;;;2.25;1.80;;;;;;;;;;5068728;28;20504;-68
2023/01/29 08:41:26;;;;;;;0.95;0.95;;;;;;;;;;5070316;28;20053;-69
2023/01/29 08:43:56;;;;;;;0.73;0.73;;;;;;;;;;5077792;28;20052;-69
2023/01/29 08:46:25;;;;;;;1.10;0.95;;;;;;;;;;5068478;28;20079;-68
2023/01/29 08:48:54;;;;;;;3.08;1.17;;;;;;;;;;5069665;28;20047;-68
2023/01/29 08:51:22;;;;;;;1.40;0.90;;;;;;;;;;5069333;28;20055;-69
2023/01/29 08:53:50;;;;;;;3.22;1.40;;;;;;;;;;5071098;28;20066;-68
2023/01/29 08:56:19;;;;;;;2.10;1.60;;;;;;;;;;5069788;28;20063;-69
2023/01/29 08:58:47;;;;;;;2.08;1.23;;;;;;;;;;5075169;28;20043;-67
2023/01/29 09:01:16;;;;;;;1.40;1.13;;;;;;;;;;5063859;28;20048;-70
2023/01/29 09:03:45;;;;;;;1.00;0.95;;;;;;;;;;5079533;28;20048;-68
2023/01/29 09:06:14;;;;;;;1.60;1.15;;;;;;;;;;5068019;28;20131;-70
2023/01/29 09:08:43;;;;;;;0.93;0.88;;;;;;;;;;5064645;28;20051;-68
2023/01/29 09:11:11;;;;;;;0.95;0.75;;;;;;;;;;5062761;28;20136;-68
2023/01/29 09:13:39;;;;;;;1.42;1.25;;;;;;;;;;5071484;28;20040;-69
2023/01/29 09:16:08;;;;;;;1.52;1.00;;;;;;;;;;5068656;28;20490;-69
2023/01/29 09:18:38;;;;;;;1.13;1.13;;;;;;;;;;5071461;28;20044;-68
2023/01/29 09:21:06;;;;;;;4.45;2.17;;;;;;;;;;5063539;28;20055;-70
2023/01/29 09:23:34;;;;;;;3.05;1.75;;;;;;;;;;5060271;28;20052;-68
2023/01/29 09:26:03;;;;;;;1.10;0.93;;;;;;;;;;5067863;28;20536;-68
2023/01/29 09:28:31;;;;;;;0.32;0.32;;;;;;;;;;5063660;28;20135;-69
2023/01/29 09:31:01;;;;;;;2.05;1.85;;;;;;;;;;5073019;28;20056;-70
2023/01/29 09:33:31;;;;;;;1.17;1.10;;;;;;;;;;5065667;28;20045;-69
2023/01/29 09:36:02;;;;;;;1.58;0.63;;;;;;;;;;5059468;28;20136;-68
2023/01/29 09:38:31;;;;;;;3.22;2.15;;;;;;;;;;5058332;28;20056;-67
2023/01/29 09:41:03;;;;;;;0.68;0.57;;;;;;;;;;5057790;28;20047;-68
2023/01/29 09:43:40;;;;;;;2.25;1.13;;;;;;;;;;5062941;28;20044;-68
2023/01/29 09:46:13;;;;;;;2.45;1.50;;;;;;;;;;5056984;28;20183;-69
2023/01/29 09:48:42;;;;;;;4.65;1.80;;;;;;;;;;5070066;28;20135;-68
2023/01/29 09:51:15;;;;;;;0.93;0.73;;;;;;;;;;5066241;28;20057;-68
2023/01/29 09:53:48;;;;;;;2.60;0.88;;;;;;;;;;5066053;28;20057;-68
2023/01/29 09:56:19;;;;;;;1.05;1.00;;;;;;;;;;5067845;28;20049;-68
2023/01/29 09:58:47;;;;;;;0.75;0.75;;;;;;;;;;5067995;28;20075;-70
2023/01/29 10:01:19;;;;;;;0.75;0.63;;;;;;;;;;5065948;28;20087;-67
2023/01/29 10:04:08;;;;;;;4.38;0.75;;;;;;;;;;5061707;28;20044;-66
2023/01/29 10:06:43;;;;;;;3.20;1.17;;;;;;;;;;5064479;28;20079;-69
2023/01/29 10:09:36;;;;;;;1.23;0.70;;;;;;;;;;5065491;28;20048;-68
2023/01/29 10:12:11;;;;;;;0.40;0.40;;;;;;;;;;5064805;28;20052;-67
2023/01/29 10:14:45;;;;;;;2.58;1.02;;;;;;;;;;5072702;28;20052;-69
2023/01/29 10:17:22;;;;;;;4.03;1.20;;;;;;;;;;5069246;28;20394;-67
2023/01/29 10:20:07;;;;;;;2.83;0.55;;;;;;;;;;5066526;28;20048;-68
2023/01/29 10:22:45;;;;;;;0.55;0.55;;;;;;;;;;5072596;28;20045;-68
2023/01/29 10:25:14;;;;;;;3.65;0.95;;;;;;;;;;5071739;28;20056;-68
2023/01/29 10:27:46;;;;;;;1.40;0.73;;;;;;;;;;5074230;28;20085;-68
2023/01/29 10:30:21;;;;;;;2.22;1.02;;;;;;;;;;5076289;28;20163;-67
2023/01/29 10:32:50;;;;;;;0.60;0.60;;;;;;;;;;5072276;28;20055;-67
2023/01/29 10:35:22;;;;;;;1.20;1.10;;;;;;;;;;5076168;28;20062;-68
2023/01/29 10:37:52;;;;;;;1.38;0.95;;;;;;;;;;5071435;28;20075;-69
2023/01/29 10:40:22;;;;;;;5.40;1.30;;;;;;;;;;5072829;28;20045;-68
2023/01/29 10:42:54;;;;;;;1.98;1.05;;;;;;;;;;5072949;28;20118;-68
2023/01/29 10:45:27;;;;;;;1.52;1.42;;;;;;;;;;5073977;28;20432;-69
2023/01/29 10:48:13;;;;;;;3.50;0.68;;;;;;;;;;5063678;28;20515;-68
2023/01/29 10:50:48;;;;;;;7.47;1.20;;;;;;;;;;5057818;28;20036;-68
2023/01/29 10:53:25;;;;;;;5.25;1.02;;;;;;;;;;5070763;28;20095;-66
2023/01/29 10:55:58;;;;;;;0.95;0.73;;;;;;;;;;5073074;28;20124;-69
2023/01/29 10:58:31;;;;;;;1.40;1.15;;;;;;;;;;5069664;28;20060;-68
2023/01/29 11:01:00;;;;;;;1.95;0.80;;;;;;;;;;5071629;28;20139;-68
2023/01/29 11:03:29;;;;;;;1.27;0.93;;;;;;;;;;5070560;28;20060;-69
2023/01/29 11:06:10;;;;;;;3.35;0.95;;;;;;;;;;5070127;28;20056;-66
2023/01/29 11:08:43;;;;;;;0.70;0.70;;;;;;;;;;5069502;28;20071;-71
2023/01/29 11:11:13;;;;;;;1.00;0.93;;;;;;;;;;5068653;28;20090;-67
2023/01/29 11:13:43;;;;;;;2.80;1.42;;;;;;;;;;5071094;28;20048;-68
2023/01/29 11:16:12;;;;;;;1.90;1.70;;;;;;;;;;5067857;28;20045;-67
2023/01/29 11:18:51;;;;;;;1.42;1.33;;;;;;;;;;5072935;28;20044;-68
2023/01/29 11:21:20;;;;;;;1.05;0.95;;;;;;;;;;5070983;28;20123;-67
2023/01/29 11:23:49;;;;;;;1.80;1.67;;;;;;;;;;5068089;28;20068;-68
2023/01/29 11:26:21;;;;;;;0.70;0.70;;;;;;;;;;5071723;28;20070;-69
2023/01/29 11:28:50;;;;;;;1.98;0.82;;;;;;;;;;5068348;28;20481;-69
2023/01/29 11:31:27;;;;;;;2.63;0.90;;;;;;;;;;5072439;28;20056;-69
2023/01/29 11:34:03;;;;;;;1.40;1.20;;;;;;;;;;5071788;28;20155;-68
2023/01/29 11:36:35;;;;;;;3.92;1.58;;;;;;;;;;5060659;28;20469;-67
2023/01/29 11:39:19;;;;;;;0.43;0.43;;;;;;;;;;5065786;28;20052;-67
2023/01/29 11:41:53;;;;;;;0.82;0.82;;;;;;;;;;5068940;28;20480;-66
2023/01/29 11:44:23;;;;;;;0.85;0.77;;;;;;;;;;5069694;28;20049;-67
2023/01/29 11:46:51;;;;;;;1.67;1.30;;;;;;;;;;5070388;28;20048;-67
2023/01/29 11:49:23;;;;;;;0.88;0.82;;;;;;;;;;5065519;28;20045;-68
2023/01/29 11:51:53;;;;;;;0.80;0.80;;;;;;;;;;5071450;28;20048;-68
2023/01/29 11:54:25;;;;;;;1.17;0.70;;;;;;;;;;5067099;28;20415;-69
2023/01/29 11:56:54;;;;;;;4.40;2.53;;;;;;;;;;5068878;28;20056;-68
2023/01/29 11:59:28;;;;;;;1.90;1.58;;;;;;;;;;5069591;28;20045;-67
2023/01/29 12:01:57;;;;;;;1.10;0.73;;;;;;;;;;5057266;28;20127;-67
2023/01/29 12:04:26;;;;;;;2.72;1.55;;;;;;;;;;5068322;28;20068;-67
2023/01/29 12:06:55;;;;;;;3.72;0.80;;;;;;;;;;5067524;28;20048;-67
2023/01/29 12:09:27;;;;;;;3.05;1.13;;;;;;;;;;5069595;28;20049;-68
2023/01/29 12:11:55;;;;;;;0.50;0.50;;;;;;;;;;5068233;28;20052;-71
2023/01/29 12:14:32;;;;;;;2.17;0.85;;;;;;;;;;5061811;28;20044;-68
2023/01/29 12:17:03;;;;;;;0.45;0.45;;;;;;;;;;5066211;28;20049;-72
2023/01/29 12:19:35;;;;;;;1.33;1.23;;;;;;;;;;5067225;28;20513;-71
2023/01/29 12:22:05;;;;;;;1.65;1.50;;;;;;;;;;5068782;28;20139;-67
2023/01/29 12:24:37;;;;;;;5.43;1.45;;;;;;;;;;5069117;28;20048;-68
2023/01/29 12:27:08;;;;;;;1.50;1.40;;;;;;;;;;5063990;28;20044;-74
2023/01/29 12:29:41;;;;;;;2.53;0.98;;;;;;;;;;5068812;28;20075;-71
2023/01/29 12:32:15;;;;;;;1.40;0.73;;;;;;;;;;5069819;28;20048;-69
2023/01/29 12:34:46;;;;;;;0.90;0.70;;;;;;;;;;5070959;28;20444;-71
2023/01/29 12:37:18;;;;;;;1.95;1.38;;;;;;;;;;5068774;28;20489;-73
2023/01/29 12:39:48;;;;;;;5.25;1.45;;;;;;;;;;5060958;28;20431;-76
2023/01/29 12:42:19;;;;;;;1.33;0.95;;;;;;;;;;5069640;28;20051;-78
2023/01/29 12:44:49;;;;;;;1.98;1.40;;;;;;;;;;5065702;28;20511;-80
2023/01/29 12:47:20;;;;;;;8.18;1.88;;;;;;;;;;5067009;28;20056;-81
2023/01/29 12:49:51;;;;;;;0.47;0.47;;;;;;;;;;5068614;28;20147;-81
2023/01/29 12:52:22;;;;;;;1.40;1.02;;;;;;;;;;5061157;28;20060;-81
2023/01/29 12:54:56;;;;;;;4.03;1.67;;;;;;;;;;5068908;28;20509;-83
2023/01/29 12:57:28;;;;;;;5.90;1.13;;;;;;;;;;5065675;28;20056;-80
2023/01/29 12:59:59;;;;;;;1.10;1.10;;;;;;;;;;5061471;28;20139;-81
2023/01/29 13:02:32;;;;;;;2.65;1.25;;;;;;;;;;5070240;28;20052;-81
2023/01/29 13:05:03;;;;;;;1.80;1.33;;;;;;;;;;5075080;28;20059;-86
2023/01/29 13:07:33;;;;;;;0.73;0.73;;;;;;;;;;5068703;28;20501;-84
2023/01/29 13:10:05;;;;;;;4.03;2.17;;;;;;;;;;5066952;28;20127;-82
2023/01/29 13:12:35;;;;;;;2.35;1.35;;;;;;;;;;5074712;28;20048;-85
2023/01/29 13:15:06;;;;;;;2.63;1.40;;;;;;;;;;5078093;28;20052;-83
2023/01/29 13:17:36;;;;;;;1.50;1.42;;;;;;;;;;5071017;28;20067;-83
2023/01/29 13:20:11;;;;;;;3.88;0.90;;;;;;;;;;5068680;28;20128;-82
2023/01/29 13:22:41;;;;;;;1.58;1.27;;;;;;;;;;5062206;28;20059;-82
2023/01/29 13:25:15;;;;;;;2.25;1.23;;;;;;;;;;5069493;28;20624;-80
2023/01/29 13:27:46;;;;;;;1.90;1.80;;;;;;;;;;5075289;28;20059;-78
2023/01/29 13:30:29;;;;;;;2.00;1.83;;;;;;;;;;5071619;28;20071;-79
2023/01/29 13:33:07;;;;;;;2.55;0.73;;;;;;;;;;5064306;28;20176;-80
2023/01/29 13:35:38;;;;;;;5.18;0.98;;;;;;;;;;5067472;28;20045;-79
2023/01/29 13:38:16;;;;;;;1.05;0.90;;;;;;;;;;5057069;28;20051;-84
2023/01/29 13:40:49;;;;;;;3.17;2.15;;;;;;;;;;5065366;28;20052;-77
2023/01/29 13:43:20;;;;;;;4.70;1.58;;;;;;;;;;5065293;28;20044;-79
2023/01/29 13:45:50;;;;;;;2.42;1.13;;;;;;;;;;5065095;28;20048;-81
2023/01/29 13:48:22;;;;;;;1.75;0.98;;;;;;;;;;5079533;28;20055;-80
2023/01/29 13:50:51;;;;;;;2.17;1.67;;;;;;;;;;5084556;28;20048;-80
2023/01/29 13:53:22;;;;;;;5.53;2.45;;;;;;;;;;5070223;28;20040;-80
2023/01/29 13:55:52;;;;;;;2.63;1.52;;;;;;;;;;5071498;28;20057;-81
2023/01/29 13:58:47;;;;;;;3.65;1.98;;;;;;;;;;5072162;28;20036;-81
2023/01/29 14:01:19;;;;;;;3.33;1.55;;;;;;;;;;5072390;28;20040;-81
2023/01/29 14:03:52;;;;;;;1.73;1.63;;;;;;;;;;5074750;28;20168;-83
2023/01/29 14:06:45;;;;;;;1.08;0.98;;;;;;;;;;5071621;28;20054;-80
2023/01/29 14:09:34;;;;;;;2.80;2.05;;;;;;;;;;5071817;28;20056;-81
2023/01/29 14:12:04;;;;;;;0.95;0.95;;;;;;;;;;5070759;28;20062;-80
2023/01/29 14:14:52;;;;;;;2.20;1.38;;;;;;;;;;5073013;28;20041;-85
2023/01/29 14:17:21;;;;;;;1.88;1.75;;;;;;;;;;5068748;28;20048;-81
2023/01/29 14:20:00;;;;;;;1.08;1.02;;;;;;;;;;5074320;28;20051;-79
2023/01/29 14:22:29;;;;;;;1.50;1.40;;;;;;;;;;5070265;28;20053;-79
2023/01/29 14:24:59;;;;;;;3.15;1.85;;;;;;;;;;5067706;28;20067;-82
2023/01/29 14:27:28;;;;;;;4.88;1.13;;;;;;;;;;5072526;28;20098;-80
2023/01/29 14:30:00;;;;;;;2.90;2.08;;;;;;;;;;5074039;28;20056;-81
2023/01/29 14:32:28;;;;;;;3.25;2.05;;;;;;;;;;5075007;28;20051;-84
2023/01/29 14:35:00;;;;;;;6.40;3.17;;;;;;;;;;5073558;28;20515;-79
2023/01/29 14:37:31;;;;;;;1.85;1.20;;;;;;;;;;5066388;28;20501;-80
2023/01/29 14:40:08;;;;;;;1.98;1.30;;;;;;;;;;5073058;28;20465;-80
2023/01/29 14:42:39;;;;;;;1.98;1.63;;;;;;;;;;5073513;28;20075;-79
2023/01/29 14:45:11;;;;;;;0.85;0.85;;;;;;;;;;5080635;28;20603;-82
2023/01/29 14:47:56;;;;;;;1.90;1.75;;;;;;;;;;5071681;28;20071;-79
2023/01/29 14:50:24;;;;;;;;;;;;;;;;;;5072944;28;20075;-82
2023/01/29 14:52:53;;;;;;;2.35;0.65;;;;;;;;;;5075732;28;19959;-79
2023/01/29 14:55:27;;;;;;;0.73;0.63;;;;;;;;;;5070424;28;20047;-80
2023/01/29 14:57:57;;;;;;;1.23;0.82;;;;;;;;;;5063105;28;20067;-81
2023/01/29 15:00:28;;;;;;;1.60;1.50;;;;;;;;;;5068176;28;20088;-82
2023/01/29 15:02:56;;;;;;;1.65;1.40;;;;;;;;;;5064042;28;20124;-79
2023/01/29 15:05:31;;;;;;;3.77;1.30;;;;;;;;;;5067450;28;20094;-82
2023/01/29 15:08:03;;;;;;;1.10;1.08;;;;;;;;;;5075255;28;20052;-81
2023/01/29 15:10:35;;;;;;;2.30;1.77;;;;;;;;;;5070324;28;20057;-83
2023/01/29 15:13:10;;;;;;;0.57;0.57;;;;;;;;;;5069968;28;20131;-79
2023/01/29 15:15:40;;;;;;;3.93;1.73;;;;;;;;;;5069630;28;20491;-84
2023/01/29 15:18:13;;;;;;;4.18;1.73;;;;;;;;;;5065350;28;20063;-81
2023/01/29 15:20:42;;;;;;;6.38;1.25;;;;;;;;;;5068420;28;20074;-80
2023/01/29 15:23:25;;;;;;;1.27;0.90;;;;;;;;;;5061721;28;20135;-79
2023/01/29 15:25:54;;;;;;;1.40;1.30;;;;;;;;;;5069614;28;20049;-79
2023/01/29 15:28:24;;;;;;;1.58;0.90;;;;;;;;;;5069432;28;20055;-84
2023/01/29 15:30:54;;;;;;;1.13;0.93;;;;;;;;;;5070488;28;20692;-79
2023/01/29 15:33:23;;;;;;;2.58;1.00;;;;;;;;;;5070985;28;20049;-79
2023/01/29 15:35:55;;;;;;;1.35;1.25;;;;;;;;;;5069010;28;20064;-78
2023/01/29 15:38:34;;;;;;;10.15;2.10;;;;;;;;;;5065640;28;20075;-83